Time;durP1;ratioP1;P1;durP2;ratioP2;P2;SDS_P1;SDS_P2;PMS_P1;PMS_P2;Temp;Humidity;BMP_temperature;BMP_pressure;BME280_temperature;BME280_humidity;BME280_pressure;Samples;Min_cycle;Max_cycle;Signal;HPM_P1;HPM_P2
2021/12/19 00:02:12;;;;;;;5.30;3.88;;;21.90;52.50;;;;;;5098523;28;20055;-69
2021/12/19 00:10:09;;;;;;;6.40;3.63;;;21.80;52.40;;;;;;5098765;28;20051;-69
2021/12/19 00:12:35;;;;;;;6.05;4.15;;;21.80;52.30;;;;;;5098421;28;20066;-69
2021/12/19 00:15:02;;;;;;;6.22;3.67;;;21.90;52.50;;;;;;5098352;28;20044;-68
2021/12/19 00:17:28;;;;;;;7.07;3.40;;;21.90;52.30;;;;;;5098635;28;20037;-69
2021/12/19 00:19:54;;;;;;;6.03;3.53;;;22.00;52.30;;;;;;5097688;28;20040;-69
2021/12/19 00:22:20;;;;;;;5.93;3.83;;;21.90;52.30;;;;;;5098168;28;20067;-69
2021/12/19 00:24:47;;;;;;;5.65;3.72;;;21.90;52.20;;;;;;5098213;28;20070;-68
2021/12/19 00:27:13;;;;;;;5.82;4.53;;;21.90;52.20;;;;;;5098158;28;20059;-69
2021/12/19 00:29:39;;;;;;;5.18;3.70;;;22.00;52.10;;;;;;5098328;28;20052;-69
2021/12/19 00:32:05;;;;;;;4.28;3.60;;;21.90;52.10;;;;;;5098227;28;20040;-69
2021/12/19 00:34:31;;;;;;;7.00;4.13;;;21.90;52.10;;;;;;5097943;28;20040;-68
2021/12/19 00:36:57;;;;;;;5.05;3.65;;;21.90;52.10;;;;;;5098217;28;20044;-69
2021/12/19 00:39:23;;;;;;;6.65;3.97;;;21.90;52.10;;;;;;5098176;28;20040;-69
2021/12/19 00:41:52;;;;;;;4.50;3.22;;;21.90;52.10;;;;;;5097975;28;20041;-68
2021/12/19 00:44:24;;;;;;;4.15;3.38;;;21.80;52.00;;;;;;5097944;28;20044;-68
2021/12/19 00:46:53;;;;;;;5.70;3.65;;;21.80;51.90;;;;;;5097990;28;20044;-68
2021/12/19 00:49:22;;;;;;;5.68;3.50;;;21.80;52.00;;;;;;5097912;28;20033;-69
2021/12/19 00:51:49;;;;;;;5.53;3.55;;;21.80;52.00;;;;;;5097920;28;20103;-69
2021/12/19 00:54:15;;;;;;;5.18;3.83;;;21.80;51.90;;;;;;5097515;28;20138;-69
2021/12/19 00:56:44;;;;;;;7.85;3.70;;;21.80;51.90;;;;;;5097806;28;20040;-69
2021/12/19 00:59:12;;;;;;;4.78;2.90;;;21.90;52.00;;;;;;5097812;28;20036;-69
2021/12/19 01:01:39;;;;;;;5.55;3.38;;;22.00;51.80;;;;;;5097522;28;20100;-68
2021/12/19 01:04:10;;;;;;;6.55;3.53;;;22.10;51.60;;;;;;5097676;28;20066;-69
2021/12/19 01:06:40;;;;;;;6.70;4.35;;;22.10;51.40;;;;;;5097532;28;20087;-69
2021/12/19 01:09:08;;;;;;;5.05;3.30;;;22.20;51.40;;;;;;5097484;28;20048;-68
2021/12/19 01:11:35;;;;;;;4.70;3.55;;;22.20;51.40;;;;;;5097544;28;20067;-69
2021/12/19 01:14:02;;;;;;;6.22;3.30;;;22.10;51.40;;;;;;5097339;28;20045;-69
2021/12/19 01:16:28;;;;;;;3.63;3.30;;;22.30;51.40;;;;;;5096408;28;20029;-69
2021/12/19 01:18:54;;;;;;;5.25;3.47;;;22.10;51.30;;;;;;5097359;28;20067;-69
2021/12/19 01:21:20;;;;;;;5.95;3.92;;;22.20;51.30;;;;;;5096725;28;20040;-69
2021/12/19 01:23:47;;;;;;;6.15;3.70;;;22.10;51.40;;;;;;5097118;28;20044;-69
2021/12/19 01:26:14;;;;;;;5.88;3.60;;;22.00;51.30;;;;;;5097150;28;20051;-69
2021/12/19 01:28:42;;;;;;;5.70;3.60;;;22.00;51.50;;;;;;5096678;28;20044;-68
2021/12/19 01:31:09;;;;;;;4.95;3.72;;;22.00;51.50;;;;;;5096629;28;20108;-69
2021/12/19 01:33:36;;;;;;;4.70;3.28;;;22.00;51.50;;;;;;5097176;28;20036;-69
2021/12/19 01:36:03;;;;;;;4.30;3.22;;;22.00;51.60;;;;;;5096996;28;20053;-68
2021/12/19 01:38:30;;;;;;;5.68;3.35;;;21.90;51.60;;;;;;5096970;28;20063;-68
2021/12/19 01:40:57;;;;;;;4.80;3.20;;;22.00;51.60;;;;;;5097104;28;20096;-69
2021/12/19 01:43:27;;;;;;;4.07;3.20;;;22.00;51.60;;;;;;5096773;28;20040;-68
2021/12/19 01:45:55;;;;;;;3.28;2.83;;;21.90;51.70;;;;;;5096821;28;20044;-69
2021/12/19 01:48:21;;;;;;;4.43;3.60;;;22.00;51.50;;;;;;5096868;28;20055;-68
2021/12/19 01:50:48;;;;;;;4.22;3.13;;;22.10;51.20;;;;;;5096906;28;20067;-68
2021/12/19 01:53:15;;;;;;;3.85;3.05;;;22.10;51.10;;;;;;5097013;28;20545;-69
2021/12/19 01:55:44;;;;;;;6.38;3.67;;;22.20;51.10;;;;;;5096557;28;20051;-69
2021/12/19 01:58:10;;;;;;;4.65;2.85;;;22.40;51.10;;;;;;5096748;28;20059;-68
2021/12/19 02:00:56;;;;;;;4.90;3.42;;;22.20;51.00;;;;;;5096671;28;20044;-68
2021/12/19 02:03:24;;;;;;;5.75;3.65;;;22.30;51.10;;;;;;5096895;28;20036;-69
2021/12/19 02:05:50;;;;;;;3.88;3.10;;;22.30;50.90;;;;;;5096319;28;20044;-69
2021/12/19 02:08:18;;;;;;;4.35;3.20;;;22.30;50.90;;;;;;5096504;28;20048;-69
2021/12/19 02:10:45;;;;;;;3.00;2.70;;;22.40;50.70;;;;;;5096655;28;20074;-69
2021/12/19 02:13:13;;;;;;;4.03;3.20;;;22.40;50.80;;;;;;5096561;28;20072;-69
2021/12/19 02:15:41;;;;;;;6.00;3.83;;;22.50;50.90;;;;;;5096237;28;20159;-69
2021/12/19 02:18:11;;;;;;;4.82;3.42;;;22.50;50.60;;;;;;5096702;28;20044;-69
2021/12/19 02:20:40;;;;;;;4.47;3.38;;;22.40;50.60;;;;;;5084899;28;20064;-69
2021/12/19 02:23:09;;;;;;;3.00;2.70;;;22.40;50.60;;;;;;5095992;28;20048;-69
2021/12/19 02:25:37;;;;;;;3.97;3.22;;;22.40;50.80;;;;;;5096282;28;20040;-69
2021/12/19 02:28:03;;;;;;;5.05;3.35;;;22.40;50.50;;;;;;5096661;28;20052;-68
2021/12/19 02:30:30;;;;;;;3.92;2.80;;;22.40;50.50;;;;;;5096448;28;20063;-68
2021/12/19 02:32:56;;;;;;;4.32;2.85;;;22.50;50.80;;;;;;5096508;28;20036;-69
2021/12/19 02:35:27;;;;;;;5.90;3.72;;;22.50;50.50;;;;;;5096213;28;20080;-69
2021/12/19 02:48:48;;;;;;;4.75;3.03;;;22.60;50.60;;;;;;5100328;28;20040;-69
2021/12/19 02:51:14;;;;;;;3.72;3.10;;;22.60;50.60;;;;;;5100309;28;20064;-68
2021/12/19 02:53:42;;;;;;;5.95;3.40;;;22.50;50.70;;;;;;5100073;28;20048;-69
2021/12/19 02:56:10;;;;;;;6.88;3.40;;;22.50;50.90;;;;;;5099706;28;20104;-69
2021/12/19 02:58:38;;;;;;;5.35;3.00;;;22.60;51.00;;;;;;5100129;28;20033;-68
2021/12/19 03:01:10;;;;;;;5.93;3.10;;;22.40;51.20;;;;;;5099933;28;20044;-68
2021/12/19 03:03:36;;;;;;;4.18;2.72;;;22.30;51.30;;;;;;5099968;28;20036;-67
2021/12/19 03:06:04;;;;;;;5.22;3.20;;;22.30;51.50;;;;;;5099916;28;20044;-69
2021/12/19 03:08:31;;;;;;;4.35;2.97;;;22.30;51.40;;;;;;5099683;28;20052;-68
2021/12/19 03:18:59;;;;;;;3.38;3.08;;;22.30;51.30;;;;;;5099749;28;20139;-68
2021/12/19 03:21:25;;;;;;;5.05;3.75;;;22.20;51.20;;;;;;5099596;28;20051;-69
2021/12/19 03:23:52;;;;;;;4.35;3.30;;;22.20;51.30;;;;;;5099585;28;20064;-69
2021/12/19 03:26:19;;;;;;;5.10;3.42;;;22.10;51.60;;;;;;5099401;28;20658;-69
2021/12/19 03:28:45;;;;;;;4.18;3.17;;;22.10;51.70;;;;;;5099142;28;20047;-69
2021/12/19 03:31:11;;;;;;;3.50;2.80;;;22.20;51.70;;;;;;5099211;28;20048;-69
2021/12/19 03:33:38;;;;;;;3.83;3.10;;;22.20;51.50;;;;;;5099265;28;20051;-69
2021/12/19 03:36:05;;;;;;;3.13;2.55;;;22.30;51.50;;;;;;5099123;28;20097;-68
2021/12/19 03:38:37;;;;;;;2.90;2.60;;;22.20;51.40;;;;;;5099341;28;20040;-68
2021/12/19 03:41:21;;;;;;;4.00;3.00;;;22.20;51.30;;;;;;5098920;28;20040;-69
2021/12/19 03:43:49;;;;;;;4.10;2.75;;;22.20;51.30;;;;;;5099085;28;20037;-68
2021/12/19 03:46:15;;;;;;;3.10;2.58;;;22.30;51.40;;;;;;5099120;28;20836;-68
2021/12/19 03:48:42;;;;;;;5.55;3.00;;;22.20;51.30;;;;;;5099140;28;20044;-71
2021/12/19 03:51:08;;;;;;;3.22;2.75;;;22.20;51.30;;;;;;5099000;28;20044;-69
2021/12/19 03:53:36;;;;;;;3.33;2.63;;;22.20;51.20;;;;;;5099137;28;20055;-69
2021/12/19 03:56:02;;;;;;;3.65;2.92;;;22.20;51.40;;;;;;5097610;28;20043;-68
2021/12/19 03:58:29;;;;;;;5.30;3.03;;;22.00;51.40;;;;;;5098805;28;20066;-69
2021/12/19 04:01:00;;;;;;;3.33;2.78;;;22.00;51.60;;;;;;5098953;28;20052;-68
2021/12/19 04:03:28;;;;;;;3.53;3.15;;;22.00;51.70;;;;;;5098725;28;20055;-67
2021/12/19 04:05:54;;;;;;;3.97;2.95;;;21.90;51.80;;;;;;5098770;28;20079;-69
2021/12/19 04:08:21;;;;;;;3.20;2.55;;;21.90;51.80;;;;;;5098644;28;20119;-68
2021/12/19 04:10:49;;;;;;;3.30;2.63;;;21.90;51.90;;;;;;5098521;28;20052;-68
2021/12/19 04:13:16;;;;;;;7.43;3.30;;;21.70;51.80;;;;;;5098659;28;20047;-68
2021/12/19 04:15:43;;;;;;;3.40;2.72;;;21.80;51.90;;;;;;5098519;28;20047;-68
2021/12/19 04:18:09;;;;;;;4.43;2.97;;;21.70;52.00;;;;;;5098372;28;20028;-69
2021/12/19 04:20:35;;;;;;;6.15;3.63;;;21.70;52.10;;;;;;5098455;28;20059;-69
2021/12/19 04:23:01;;;;;;;5.35;3.10;;;21.70;52.10;;;;;;5097772;28;20067;-68
2021/12/19 04:25:28;;;;;;;2.63;2.42;;;21.60;52.00;;;;;;5098124;28;20072;-69
2021/12/19 04:27:54;;;;;;;3.25;2.58;;;21.70;52.10;;;;;;5098315;28;20051;-68
2021/12/19 04:30:24;;;;;;;3.17;2.60;;;21.80;51.90;;;;;;5098191;28;20051;-69
2021/12/19 04:33:01;;;;;;;3.45;2.55;;;21.80;51.90;;;;;;5098097;28;20055;-68
2021/12/19 04:35:32;;;;;;;3.55;2.33;;;21.80;51.80;;;;;;5098211;28;20060;-69
2021/12/19 04:51:42;;;;;;;3.13;2.55;;;21.80;51.70;;;;;;5077883;28;20072;-69
2021/12/19 04:56:48;;;;;;;6.10;2.63;;;21.60;51.70;;;;;;5077914;28;20041;-69
2021/12/19 05:15:23;;;;;;;3.90;3.13;;;21.60;51.70;;;;;;5076540;28;20064;-69
2021/12/19 05:17:49;;;;;;;4.57;2.80;;;21.50;51.70;;;;;;5075905;28;20048;-68
2021/12/19 05:20:17;;;;;;;3.25;2.47;;;21.60;51.60;;;;;;5076675;28;20045;-69
2021/12/19 05:22:48;;;;;;;5.53;2.85;;;21.80;51.60;;;;;;5076500;28;20045;-70
2021/12/19 05:25:17;;;;;;;4.15;2.78;;;21.70;51.50;;;;;;5083710;28;20044;-70
2021/12/19 05:27:45;;;;;;;4.03;2.63;;;21.80;51.40;;;;;;5096372;28;20036;-68
2021/12/19 05:30:14;;;;;;;6.80;2.65;;;21.80;51.20;;;;;;5096262;28;20048;-68
2021/12/19 05:32:42;;;;;;;3.45;2.88;;;21.70;51.20;;;;;;5095466;28;20052;-68
2021/12/19 05:35:10;;;;;;;2.90;2.15;;;21.70;51.20;;;;;;5095377;28;20055;-69
2021/12/19 05:45:52;;;;;;;4.00;2.80;;;22.20;50.50;;;;;;5096492;28;20055;-69
2021/12/19 05:48:18;;;;;;;3.72;1.70;;;22.30;50.20;;;;;;5095329;28;20044;-69
2021/12/19 05:50:44;;;;;;;2.20;1.90;;;22.20;49.80;;;;;;5096069;28;20138;-69
2021/12/19 05:53:11;;;;;;;4.65;2.90;;;22.30;49.50;;;;;;5096078;28;20044;-69
2021/12/19 05:55:39;;;;;;;3.67;2.45;;;22.40;49.40;;;;;;5096006;28;20051;-69
2021/12/19 05:58:06;;;;;;;3.75;2.70;;;22.40;51.70;;;;;;5095868;28;20036;-69
2021/12/19 06:00:33;;;;;;;3.35;2.33;;;22.70;52.40;;;;;;5096162;28;20041;-68
2021/12/19 06:03:01;;;;;;;4.75;2.70;;;22.70;51.70;;;;;;5096090;28;20068;-69
2021/12/19 06:05:29;;;;;;;2.95;1.80;;;22.80;54.30;;;;;;5093452;28;20077;-69
2021/12/19 06:07:55;;;;;;;2.65;1.92;;;22.90;47.40;;;;;;5095274;28;20032;-69
2021/12/19 06:10:22;;;;;;;3.38;2.42;;;22.70;46.50;;;;;;5096024;28;20055;-69
2021/12/19 06:12:49;;;;;;;3.50;2.58;;;22.90;45.60;;;;;;5095810;28;20112;-70
2021/12/19 06:15:16;;;;;;;3.22;2.92;;;22.80;44.20;;;;;;5095914;28;20044;-68
2021/12/19 06:17:46;;;;;;;4.18;2.55;;;22.80;44.10;;;;;;5095628;28;20033;-68
2021/12/19 06:20:13;;;;;;;5.47;3.05;;;22.70;44.30;;;;;;5099184;28;20039;-68
2021/12/19 06:22:39;;;;;;;4.13;2.92;;;22.70;44.80;;;;;;5100089;28;20075;-68
2021/12/19 06:25:07;;;;;;;3.63;2.85;;;22.50;45.50;;;;;;5099898;28;20068;-68
2021/12/19 06:27:33;;;;;;;4.03;2.97;;;22.60;46.10;;;;;;5099986;28;20075;-69
2021/12/19 06:29:59;;;;;;;5.53;3.30;;;22.40;46.70;;;;;;5099979;28;20044;-67
2021/12/19 06:32:25;;;;;;;6.35;3.53;;;22.40;47.20;;;;;;5099738;28;20084;-70
2021/12/19 06:34:52;;;;;;;3.65;2.60;;;22.30;47.70;;;;;;5099685;28;20100;-70
2021/12/19 06:37:18;;;;;;;3.15;2.42;;;22.30;48.90;;;;;;5099620;28;20044;-69
2021/12/19 06:39:44;;;;;;;4.63;3.03;;;22.30;49.40;;;;;;5099224;28;20040;-69
2021/12/19 06:42:11;;;;;;;4.35;2.25;;;22.40;49.10;;;;;;5099315;28;20067;-69
2021/12/19 06:44:37;;;;;;;3.55;2.35;;;22.50;49.10;;;;;;5099318;28;20077;-70
2021/12/19 06:47:04;;;;;;;2.65;1.77;;;22.70;49.80;;;;;;5099678;28;20048;-70
2021/12/19 06:49:30;;;;;;;6.47;2.75;;;22.70;51.60;;;;;;5099397;28;20048;-69
2021/12/19 06:51:56;;;;;;;2.33;1.73;;;22.60;51.20;;;;;;5099320;28;20040;-71
2021/12/19 06:54:23;;;;;;;4.90;3.15;;;22.60;51.10;;;;;;5099344;28;20076;-69
2021/12/19 06:56:49;;;;;;;5.47;2.45;;;22.60;51.70;;;;;;5099388;28;20047;-70
2021/12/19 06:59:15;;;;;;;2.08;1.80;;;22.70;51.70;;;;;;5099036;28;20045;-69
2021/12/19 07:01:41;;;;;;;2.47;1.85;;;22.70;51.50;;;;;;5099235;28;20047;-70
2021/12/19 07:04:08;;;;;;;2.90;2.15;;;22.80;51.20;;;;;;5099284;28;20059;-70
2021/12/19 07:06:34;;;;;;;4.00;2.25;;;22.60;50.00;;;;;;5098942;28;20047;-70
2021/12/19 07:09:01;;;;;;;3.05;2.25;;;22.70;49.40;;;;;;5098865;28;20040;-71
2021/12/19 07:11:27;;;;;;;1.50;1.40;;;22.80;49.10;;;;;;5099105;28;20104;-71
2021/12/19 07:13:53;;;;;;;2.53;2.00;;;22.70;49.10;;;;;;5098907;28;20044;-70
2021/12/19 07:16:19;;;;;;;2.17;1.63;;;22.80;49.20;;;;;;5099036;28;20045;-70
2021/12/19 07:18:47;;;;;;;3.03;2.70;;;22.80;48.70;;;;;;5098571;28;20063;-70
2021/12/19 07:21:14;;;;;;;2.10;1.75;;;22.80;48.30;;;;;;5098721;28;20100;-71
2021/12/19 07:23:40;;;;;;;3.25;2.55;;;22.80;48.10;;;;;;5098593;28;20045;-71
2021/12/19 07:26:06;;;;;;;6.00;3.10;;;22.70;47.90;;;;;;5098954;28;20049;-69
2021/12/19 07:28:32;;;;;;;4.25;3.47;;;22.90;47.90;;;;;;5098592;28;20078;-71
2021/12/19 07:30:58;;;;;;;4.78;3.33;;;22.80;47.70;;;;;;5097997;28;20045;-71
2021/12/19 07:33:25;;;;;;;4.80;2.35;;;22.90;47.70;;;;;;5098691;28;20119;-71
2021/12/19 07:35:52;;;;;;;4.68;3.15;;;22.90;47.70;;;;;;5098417;28;20063;-70
2021/12/19 07:38:50;;;;;;;6.10;3.28;;;23.00;47.70;;;;;;5098455;28;20041;-70
2021/12/19 07:41:05;;;;;;;2.45;1.70;;;22.80;47.50;;;;;;5098122;28;20105;-70
2021/12/19 07:43:31;;;;;;;4.43;3.35;;;22.90;47.50;;;;;;5098431;28;20066;-70
2021/12/19 07:45:57;;;;;;;5.10;3.40;;;22.80;47.30;;;;;;5098557;28;20043;-69
2021/12/19 07:48:23;;;;;;;5.38;2.83;;;22.80;47.30;;;;;;5098163;28;20052;-70
2021/12/19 07:50:49;;;;;;;3.00;2.53;;;22.90;47.40;;;;;;5098434;28;20044;-71
2021/12/19 07:53:15;;;;;;;3.20;2.25;;;22.80;47.10;;;;;;5098186;28;20051;-70
2021/12/19 07:55:41;;;;;;;3.03;2.60;;;22.80;47.10;;;;;;5097981;28;20052;-71
2021/12/19 07:58:07;;;;;;;4.35;2.72;;;22.80;47.00;;;;;;5098201;28;20041;-70
2021/12/19 08:00:34;;;;;;;5.07;3.15;;;22.80;46.90;;;;;;5097600;28;20699;-73
2021/12/19 08:03:00;;;;;;;3.75;3.30;;;22.70;46.80;;;;;;5097860;28;20036;-71
2021/12/19 08:05:27;;;;;;;3.47;2.10;;;22.90;46.90;;;;;;5097646;28;20041;-72
2021/12/19 08:08:00;;;;;;;5.93;3.08;;;22.80;46.40;;;;;;5098100;28;20048;-70
2021/12/19 08:13:01;;;;;;;3.53;2.90;;;22.80;44.40;;;;;;5097096;28;20050;-71
2021/12/19 08:15:28;;;;;;;4.13;2.63;;;22.80;43.60;;;;;;5097052;28;20043;-70
2021/12/19 08:17:54;;;;;;;4.25;2.95;;;22.80;42.80;;;;;;5097542;28;20044;-71
2021/12/19 08:20:20;;;;;;;27.80;10.27;;;22.80;41.90;;;;;;5097709;28;20062;-69
2021/12/19 08:22:49;;;;;;;5.78;3.35;;;22.80;41.30;;;;;;5097434;28;20051;-69
2021/12/19 08:25:15;;;;;;;7.85;3.20;;;22.90;40.70;;;;;;5097523;28;20045;-70
2021/12/19 08:27:41;;;;;;;3.47;2.80;;;22.80;40.10;;;;;;5097029;28;20037;-69
2021/12/19 08:30:10;;;;;;;4.03;2.95;;;22.90;39.80;;;;;;5097287;28;20036;-69
2021/12/19 08:32:37;;;;;;;4.57;3.17;;;22.80;39.90;;;;;;5097738;28;20048;-69
2021/12/19 08:35:07;;;;;;;6.43;3.40;;;22.80;40.20;;;;;;5097478;28;20040;-68
2021/12/19 08:37:33;;;;;;;1.33;1.23;;;22.80;40.80;;;;;;5096611;28;20033;-68
2021/12/19 08:39:59;;;;;;;4.30;3.10;;;22.80;41.20;;;;;;5096281;28;20044;-68
2021/12/19 08:42:27;;;;;;;6.32;2.90;;;22.80;41.50;;;;;;5096689;28;20044;-68
2021/12/19 08:44:54;;;;;;;6.18;2.88;;;22.70;41.90;;;;;;5096924;28;20040;-68
2021/12/19 08:47:20;;;;;;;5.90;4.00;;;22.80;42.20;;;;;;5097522;28;20028;-69
2021/12/19 08:49:46;;;;;;;3.10;2.90;;;22.80;42.20;;;;;;5096917;28;20063;-69
2021/12/19 08:52:13;;;;;;;5.10;3.10;;;22.70;42.40;;;;;;5097027;28;20044;-69
2021/12/19 08:54:39;;;;;;;3.95;3.28;;;22.70;42.60;;;;;;5097097;28;20131;-68
2021/12/19 08:57:05;;;;;;;3.95;2.80;;;22.50;42.50;;;;;;5097149;28;20134;-68
2021/12/19 08:59:32;;;;;;;4.28;2.83;;;22.50;43.40;;;;;;5096757;28;20044;-68
2021/12/19 09:02:00;;;;;;;5.57;3.47;;;22.40;43.60;;;;;;5096961;28;20040;-69
2021/12/19 09:04:28;;;;;;;6.07;3.78;;;22.40;43.80;;;;;;5097002;28;20048;-69
2021/12/19 09:06:56;;;;;;;4.80;3.38;;;22.40;44.60;;;;;;5096735;28;20044;-68
2021/12/19 09:09:24;;;;;;;8.13;5.00;;;22.40;44.70;;;;;;5096064;28;20052;-69
2021/12/19 09:11:50;;;;;;;7.15;4.18;;;22.60;44.90;;;;;;5096772;28;20035;-68
2021/12/19 09:14:17;;;;;;;4.93;3.85;;;22.50;44.90;;;;;;5096394;28;20105;-68
2021/12/19 09:16:43;;;;;;;3.15;2.85;;;22.70;45.00;;;;;;5096803;28;20092;-68
2021/12/19 09:19:09;;;;;;;4.45;2.85;;;22.70;45.20;;;;;;5096642;28;20040;-68
2021/12/19 09:21:35;;;;;;;3.75;3.05;;;22.70;45.30;;;;;;5096411;28;20036;-68
2021/12/19 09:24:03;;;;;;;4.55;3.15;;;22.60;45.30;;;;;;5096529;28;20055;-67
2021/12/19 09:26:29;;;;;;;3.53;2.72;;;22.50;45.20;;;;;;5096399;28;20071;-68
2021/12/19 09:28:55;;;;;;;3.42;3.08;;;22.50;45.70;;;;;;5096038;28;20037;-67
2021/12/19 09:31:24;;;;;;;4.65;3.25;;;22.70;45.80;;;;;;5096164;28;20051;-69
2021/12/19 09:33:52;;;;;;;4.38;3.42;;;22.60;45.60;;;;;;5096187;28;20120;-69
2021/12/19 09:36:18;;;;;;;5.70;3.63;;;22.60;45.70;;;;;;5096295;28;20096;-68
2021/12/19 09:38:48;;;;;;;3.30;2.97;;;22.70;45.80;;;;;;5095627;28;20044;-69
2021/12/19 09:41:27;;;;;;;3.25;2.55;;;22.80;45.90;;;;;;5096301;28;20136;-68
2021/12/19 09:43:56;;;;;;;4.03;2.63;;;22.70;40.90;;;;;;5096327;28;20036;-68
2021/12/19 09:46:22;;;;;;;4.47;2.85;;;22.60;39.70;;;;;;5096302;28;20044;-67
2021/12/19 09:48:49;;;;;;;2.90;2.35;;;22.60;41.70;;;;;;5096159;28;20051;-68
2021/12/19 09:51:17;;;;;;;3.53;2.50;;;22.40;46.30;;;;;;5096110;28;20071;-68
2021/12/19 09:53:44;;;;;;;4.00;2.28;;;22.50;45.90;;;;;;5096107;28;20044;-68
2021/12/19 09:56:12;;;;;;;2.65;2.40;;;22.60;44.30;;;;;;5095889;28;20595;-68
2021/12/19 09:58:40;;;;;;;2.65;2.45;;;22.40;45.70;;;;;;5096185;28;20048;-67
2021/12/19 10:01:09;;;;;;;4.82;3.20;;;22.40;44.70;;;;;;5078600;28;20040;-71
2021/12/19 10:03:37;;;;;;;4.30;2.85;;;22.30;45.80;;;;;;5095728;28;20080;-70
2021/12/19 10:06:22;;;;;;;3.92;2.63;;;22.30;47.40;;;;;;5096106;28;20041;-69
2021/12/19 10:09:07;;;;;;;2.97;2.67;;;22.50;51.20;;;;;;5096002;28;20037;-70
2021/12/19 10:14:35;;;;;;;3.90;2.80;;;22.90;54.00;;;;;;5084605;28;20044;-69
2021/12/19 10:17:15;;;;;;;5.78;3.30;;;23.20;57.50;;;;;;5095901;28;20051;-69
2021/12/19 10:19:43;;;;;;;6.55;3.70;;;23.30;44.30;;;;;;5095747;28;20036;-69
2021/12/19 10:22:32;;;;;;;12.35;3.95;;;23.30;43.80;;;;;;5095908;28;20142;-69
2021/12/19 10:25:13;;;;;;;8.73;3.63;;;23.70;45.20;;;;;;5095729;28;20052;-70
2021/12/19 10:27:41;;;;;;;7.03;3.67;;;23.90;46.00;;;;;;5095502;28;20036;-70
2021/12/19 10:30:12;;;;;;;4.78;3.00;;;24.10;45.20;;;;;;5095239;28;20050;-70
2021/12/19 10:33:15;;;;;;;5.38;2.85;;;24.10;42.50;;;;;;5095808;28;20043;-70
2021/12/19 10:35:43;;;;;;;8.63;4.87;;;24.20;43.00;;;;;;5095198;28;20047;-70
2021/12/19 10:38:18;;;;;;;9.82;2.97;;;24.20;41.70;;;;;;5095766;28;20280;-70
2021/12/19 10:41:11;;;;;;;8.73;3.63;;;24.40;43.50;;;;;;5095615;28;20103;-71
2021/12/19 10:46:34;;;;;;;7.18;3.25;;;24.30;42.70;;;;;;5095555;28;20028;-70
2021/12/19 10:49:01;;;;;;;5.22;3.70;;;24.40;38.60;;;;;;5095796;28;20055;-70
2021/12/19 10:51:32;;;;;;;4.15;2.78;;;24.30;36.30;;;;;;5095342;28;20076;-70
2021/12/19 10:54:00;;;;;;;7.05;3.05;;;24.40;39.10;;;;;;5094923;28;20045;-69
2021/12/19 10:56:33;;;;;;;5.45;2.92;;;24.40;44.90;;;;;;5095508;28;20048;-70
2021/12/19 10:59:05;;;;;;;60.75;23.95;;;24.40;36.30;;;;;;5095394;28;20040;-69
2021/12/19 11:01:44;;;;;;;4.13;3.40;;;24.40;37.70;;;;;;5093463;28;20062;-72
2021/12/19 11:04:15;;;;;;;5.13;3.40;;;24.40;42.20;;;;;;5075737;28;20044;-69
2021/12/19 11:06:45;;;;;;;3.60;2.70;;;24.60;43.30;;;;;;5078950;28;20048;-69
2021/12/19 11:09:13;;;;;;;3.03;2.70;;;24.50;43.50;;;;;;5079125;28;20033;-69
2021/12/19 11:11:51;;;;;;;4.93;2.90;;;24.50;44.00;;;;;;5078867;28;20041;-69
2021/12/19 11:14:31;;;;;;;4.95;2.95;;;24.40;44.20;;;;;;5079006;28;20041;-69
2021/12/19 11:17:11;;;;;;;3.08;2.53;;;24.50;44.70;;;;;;5079153;28;20044;-69
2021/12/19 11:19:38;;;;;;;4.53;3.65;;;24.30;44.70;;;;;;5078575;28;20041;-69
2021/12/19 11:22:05;;;;;;;5.10;3.33;;;24.30;45.10;;;;;;5078802;28;20045;-69
2021/12/19 11:24:32;;;;;;;4.20;3.10;;;24.30;45.50;;;;;;5078613;28;20040;-69
2021/12/19 11:27:01;;;;;;;5.63;3.90;;;24.20;45.70;;;;;;5078628;28;20056;-70
2021/12/19 11:29:28;;;;;;;3.72;2.90;;;24.20;45.70;;;;;;5078719;28;20086;-70
2021/12/19 11:31:58;;;;;;;5.90;3.50;;;24.20;46.00;;;;;;5079989;28;20052;-69
2021/12/19 11:34:25;;;;;;;3.25;2.75;;;24.20;45.60;;;;;;5096438;28;20049;-68
2021/12/19 11:37:23;;;;;;;4.82;3.00;;;24.30;46.50;;;;;;5098506;28;20044;-69
2021/12/19 11:39:52;;;;;;;4.20;3.47;;;24.30;47.50;;;;;;5097960;28;20104;-68
2021/12/19 11:42:27;;;;;;;4.65;3.30;;;24.30;49.20;;;;;;5098344;28;20044;-69
2021/12/19 11:47:47;;;;;;;6.35;3.67;;;24.20;48.20;;;;;;5098459;28;20421;-69
2021/12/19 11:50:54;;;;;;;3.72;3.25;;;24.10;48.10;;;;;;5098341;28;20052;-68
2021/12/19 11:53:29;;;;;;;5.43;3.63;;;24.20;48.10;;;;;;5097172;28;20143;-69
2021/12/19 11:56:06;;;;;;;4.50;3.28;;;24.20;48.00;;;;;;5097551;28;20079;-68
2021/12/19 11:58:53;;;;;;;4.68;3.42;;;24.20;48.20;;;;;;5098248;28;20041;-68
2021/12/19 12:01:22;;;;;;;4.80;3.08;;;24.10;48.40;;;;;;5097967;28;20560;-68
2021/12/19 12:03:49;;;;;;;5.07;3.72;;;24.20;48.60;;;;;;5098155;28;20067;-68
2021/12/19 12:06:20;;;;;;;5.97;3.97;;;24.40;48.80;;;;;;5098208;28;20096;-66
2021/12/19 12:09:05;;;;;;;7.57;2.97;;;24.10;48.80;;;;;;5097549;28;20062;-70
2021/12/19 12:11:33;;;;;;;3.88;3.28;;;24.30;48.90;;;;;;5097974;28;20051;-69
2021/12/19 12:14:23;;;;;;;4.18;2.90;;;24.20;48.90;;;;;;5097937;28;20045;-68
2021/12/19 12:17:15;;;;;;;4.47;2.88;;;24.20;49.10;;;;;;5096642;28;20117;-68
2021/12/19 12:19:53;;;;;;;3.63;2.97;;;24.40;48.40;;;;;;5097874;28;20082;-68
2021/12/19 12:22:36;;;;;;;4.30;3.17;;;24.20;48.60;;;;;;5097679;28;20056;-68
2021/12/19 12:25:23;;;;;;;5.00;3.15;;;24.20;47.50;;;;;;5097828;28;20040;-68
2021/12/19 12:28:02;;;;;;;3.58;2.90;;;24.30;48.20;;;;;;5097650;28;20028;-68
2021/12/19 12:30:39;;;;;;;4.50;2.70;;;24.30;48.00;;;;;;5080002;28;20044;-67
2021/12/19 12:33:09;;;;;;;5.57;3.40;;;24.30;47.50;;;;;;5096754;28;20059;-68
2021/12/19 12:35:39;;;;;;;3.75;2.67;;;24.20;47.70;;;;;;5097366;28;20040;-67
2021/12/19 12:38:06;;;;;;;4.07;2.88;;;24.30;47.30;;;;;;5096699;28;20040;-68
2021/12/19 12:43:32;;;;;;;4.15;2.42;;;24.20;47.50;;;;;;5097182;28;20112;-67
2021/12/19 12:46:01;;;;;;;4.05;3.47;;;24.20;47.60;;;;;;5097275;28;20048;-67
2021/12/19 12:48:56;;;;;;;4.15;3.03;;;24.20;47.50;;;;;;5097260;28;20048;-68
2021/12/19 12:51:36;;;;;;;5.65;3.33;;;24.10;47.70;;;;;;5096955;28;20044;-67
2021/12/19 12:54:07;;;;;;;5.75;3.88;;;24.00;47.70;;;;;;5097178;28;20048;-67
2021/12/19 12:56:38;;;;;;;5.38;4.07;;;24.00;46.30;;;;;;5097210;28;20055;-68
2021/12/19 12:59:05;;;;;;;4.22;2.85;;;23.80;47.50;;;;;;5096261;28;20041;-68
2021/12/19 13:01:49;;;;;;;4.78;3.35;;;23.60;48.00;;;;;;5096964;28;20065;-69
2021/12/19 13:04:28;;;;;;;8.70;4.63;;;23.70;48.90;;;;;;5096968;28;20048;-68
2021/12/19 13:07:09;;;;;;;7.07;4.43;;;23.60;49.10;;;;;;5096960;28;20052;-68
2021/12/19 13:09:51;;;;;;;5.18;3.33;;;23.60;49.20;;;;;;5096642;28;20043;-68
2021/12/19 13:12:38;;;;;;;9.52;5.13;;;23.50;49.40;;;;;;5095610;28;20104;-68
2021/12/19 13:15:06;;;;;;;5.65;4.00;;;23.60;49.30;;;;;;5096573;28;20041;-68
2021/12/19 13:17:42;;;;;;;6.65;4.05;;;23.60;49.50;;;;;;5096817;28;20075;-68
2021/12/19 13:20:17;;;;;;;5.55;3.45;;;23.70;49.10;;;;;;5095659;28;20053;-68
2021/12/19 13:22:49;;;;;;;5.88;3.92;;;23.70;49.00;;;;;;5096374;28;20036;-68
2021/12/19 13:25:17;;;;;;;6.57;4.30;;;23.80;48.70;;;;;;5096300;28;20045;-68
2021/12/19 13:28:05;;;;;;;8.35;4.07;;;23.90;48.70;;;;;;5096034;28;20044;-67
2021/12/19 13:30:34;;;;;;;5.80;3.30;;;23.90;48.50;;;;;;5095742;28;20056;-68
2021/12/19 13:33:01;;;;;;;6.70;3.30;;;24.00;48.40;;;;;;5096109;28;20082;-68
2021/12/19 13:35:28;;;;;;;4.10;2.60;;;24.00;48.30;;;;;;5096147;28;20052;-68
2021/12/19 13:38:01;;;;;;;4.60;3.03;;;24.00;48.30;;;;;;5096116;28;20040;-68
2021/12/19 13:40:30;;;;;;;;;;;24.00;48.30;;;;;;5096586;28;20049;-68
2021/12/19 13:43:06;;;;;;;3.53;2.65;;;23.80;48.20;;;;;;5095389;28;19905;-68
2021/12/19 13:45:39;;;;;;;4.60;3.40;;;23.90;48.30;;;;;;5096278;28;20048;-68
2021/12/19 13:48:13;;;;;;;5.80;3.17;;;23.90;48.30;;;;;;5096356;28;20068;-68
2021/12/19 13:50:45;;;;;;;4.30;3.20;;;24.00;48.40;;;;;;5093894;28;20044;-68
2021/12/19 13:53:14;;;;;;;8.82;3.38;;;24.00;48.40;;;;;;5095938;28;20129;-68
2021/12/19 13:56:02;;;;;;;3.55;2.60;;;24.00;48.40;;;;;;5096186;28;20048;-68
2021/12/19 13:58:36;;;;;;;4.68;3.40;;;23.80;48.20;;;;;;5075547;28;20071;-68
2021/12/19 14:01:16;;;;;;;4.93;2.95;;;23.80;48.20;;;;;;5075247;28;20041;-68
2021/12/19 14:03:59;;;;;;;6.38;3.72;;;23.90;48.30;;;;;;5075694;28;20047;-68
2021/12/19 14:06:36;;;;;;;6.80;3.63;;;23.90;48.40;;;;;;5075905;28;20044;-68
2021/12/19 14:09:10;;;;;;;6.45;3.47;;;23.90;48.50;;;;;;5083575;28;20059;-68
2021/12/19 14:11:39;;;;;;;6.75;3.75;;;23.90;48.50;;;;;;5095953;28;20040;-68
2021/12/19 14:14:25;;;;;;;4.97;4.05;;;23.90;48.40;;;;;;5095827;28;20060;-68
2021/12/19 14:17:10;;;;;;;8.13;4.22;;;24.00;48.30;;;;;;5095720;28;20064;-68
2021/12/19 14:19:53;;;;;;;6.72;4.35;;;24.10;48.40;;;;;;5095989;28;20105;-68
2021/12/19 14:22:20;;;;;;;6.57;4.22;;;23.90;48.30;;;;;;5095678;28;20020;-68